Time;durP1;ratioP1;P1;durP2;ratioP2;P2;SDS_P1;SDS_P2;PMS_P1;PMS_P2;Temp;Humidity;BMP_temperature;BMP_pressure;BME280_temperature;BME280_humidity;BME280_pressure;Samples;Min_cycle;Max_cycle;Signal;HPM_P1;HPM_P2
2022/09/20 00:02:20;;;;;;;24.55;7.65;;;;;;;;;;4991020;28;20030;-47
2022/09/20 00:04:51;;;;;;;32.20;8.20;;;;;;;;;;4989248;28;20034;-46
2022/09/20 00:07:18;;;;;;;31.05;8.02;;;;;;;;;;4991874;28;20026;-47
2022/09/20 00:09:44;;;;;;;33.22;8.82;;;;;;;;;;4991956;28;20034;-46
2022/09/20 00:12:11;;;;;;;32.70;8.60;;;;;;;;;;4988654;28;20111;-47
2022/09/20 00:14:38;;;;;;;27.52;8.18;;;;;;;;;;4991239;28;20032;-47
2022/09/20 00:17:05;;;;;;;39.50;8.73;;;;;;;;;;4990099;28;20038;-48
2022/09/20 00:19:32;;;;;;;40.28;8.95;;;;;;;;;;4988824;28;20045;-46
2022/09/20 00:21:59;;;;;;;29.75;7.63;;;;;;;;;;4986160;28;20110;-47
2022/09/20 00:24:27;;;;;;;32.95;9.00;;;;;;;;;;4980529;28;20026;-52
2022/09/20 00:26:54;;;;;;;32.47;8.40;;;;;;;;;;4981489;28;20062;-49
2022/09/20 00:29:21;;;;;;;33.80;9.00;;;;;;;;;;4972240;28;20493;-47
2022/09/20 00:31:48;;;;;;;29.05;8.60;;;;;;;;;;4973313;28;20066;-46
2022/09/20 00:37:00;;;;;;;25.63;7.82;;;;;;;;;;4972839;28;20507;-48
2022/09/20 00:39:27;;;;;;;24.75;8.35;;;;;;;;;;4971541;28;20422;-51
2022/09/20 00:41:54;;;;;;;39.22;9.10;;;;;;;;;;4972870;28;20094;-48
2022/09/20 00:44:41;;;;;;;38.17;10.48;;;;;;;;;;4972912;28;20023;-46
2022/09/20 00:47:13;;;;;;;47.50;11.95;;;;;;;;;;4973107;28;20417;-49
2022/09/20 00:49:40;;;;;;;46.08;12.60;;;;;;;;;;4971531;28;20077;-49
2022/09/20 00:52:07;;;;;;;66.65;15.77;;;;;;;;;;4973010;28;20058;-47
2022/09/20 00:54:34;;;;;;;51.53;14.25;;;;;;;;;;4972957;28;20030;-46
2022/09/20 00:57:01;;;;;;;52.65;14.10;;;;;;;;;;4973156;28;20045;-47
2022/09/20 00:59:33;;;;;;;59.75;15.60;;;;;;;;;;4972819;28;20053;-47
2022/09/20 01:02:16;;;;;;;54.15;14.23;;;;;;;;;;4973094;28;20049;-48
2022/09/20 01:04:44;;;;;;;42.95;13.25;;;;;;;;;;4973962;28;20093;-47
2022/09/20 01:07:12;;;;;;;52.30;14.45;;;;;;;;;;4976948;28;20412;-48
2022/09/20 01:09:39;;;;;;;59.22;13.98;;;;;;;;;;4976731;28;20031;-46
2022/09/20 01:12:09;;;;;;;51.80;14.25;;;;;;;;;;4978212;28;20026;-51
2022/09/20 01:14:36;;;;;;;52.10;13.98;;;;;;;;;;4984354;28;20450;-47
2022/09/20 01:17:05;;;;;;;37.90;13.60;;;;;;;;;;4985550;28;20096;-49
2022/09/20 01:19:43;;;;;;;53.35;14.10;;;;;;;;;;4976017;28;20035;-48
2022/09/20 01:22:29;;;;;;;50.13;14.35;;;;;;;;;;4988014;28;20049;-48
2022/09/20 01:25:09;;;;;;;45.40;13.43;;;;;;;;;;4965855;28;20030;-49
2022/09/20 01:27:36;;;;;;;50.13;13.32;;;;;;;;;;4994326;28;20027;-52
2022/09/20 01:30:06;;;;;;;41.90;11.70;;;;;;;;;;4974754;28;20027;-50
2022/09/20 01:32:59;;;;;;;45.45;13.25;;;;;;;;;;4976305;28;20022;-48
2022/09/20 01:35:27;;;;;;;47.38;13.52;;;;;;;;;;4967973;28;20047;-49
2022/09/20 01:38:13;;;;;;;47.53;12.68;;;;;;;;;;4975299;28;20108;-47
2022/09/20 01:40:45;;;;;;;40.05;11.30;;;;;;;;;;4976182;28;20041;-49
2022/09/20 01:43:15;;;;;;;48.00;11.88;;;;;;;;;;4975340;28;20385;-49
2022/09/20 01:45:46;;;;;;;45.88;11.95;;;;;;;;;;4972788;28;20053;-48
2022/09/20 01:48:17;;;;;;;43.25;12.23;;;;;;;;;;4972401;28;20026;-46
2022/09/20 01:50:47;;;;;;;38.35;11.32;;;;;;;;;;4973240;28;20073;-48
2022/09/20 01:53:20;;;;;;;42.33;10.68;;;;;;;;;;4972236;28;20117;-47
2022/09/20 01:55:50;;;;;;;36.70;11.50;;;;;;;;;;4973123;28;20065;-48
2022/09/20 01:58:32;;;;;;;34.60;10.10;;;;;;;;;;4974527;28;20031;-50
2022/09/20 02:00:59;;;;;;;;;;;;;;;;;;4976627;28;20094;-47
2022/09/20 02:03:26;;;;;;;33.53;10.52;;;;;;;;;;4975234;28;19952;-51
2022/09/20 02:05:53;;;;;;;31.63;10.40;;;;;;;;;;4957696;28;20474;-49
2022/09/20 02:08:23;;;;;;;30.35;9.68;;;;;;;;;;4971427;28;20037;-49
2022/09/20 02:10:50;;;;;;;30.85;10.07;;;;;;;;;;4972424;28;20050;-49
2022/09/20 02:13:36;;;;;;;32.40;9.57;;;;;;;;;;4972609;28;20552;-48
2022/09/20 02:16:03;;;;;;;32.72;9.02;;;;;;;;;;4966733;28;20038;-47
2022/09/20 02:18:29;;;;;;;36.50;10.52;;;;;;;;;;4974855;28;20022;-47
2022/09/20 02:21:12;;;;;;;30.95;9.02;;;;;;;;;;4973952;28;20027;-47
2022/09/20 02:23:51;;;;;;;30.02;9.27;;;;;;;;;;4975413;28;20510;-47
2022/09/20 02:26:36;;;;;;;29.38;9.30;;;;;;;;;;4975314;28;20117;-48
2022/09/20 02:29:06;;;;;;;30.92;8.70;;;;;;;;;;4973830;28;20070;-50
2022/09/20 02:31:33;;;;;;;30.70;8.20;;;;;;;;;;4974476;28;20022;-50
2022/09/20 02:34:20;;;;;;;27.40;8.00;;;;;;;;;;4974406;28;20023;-48
2022/09/20 02:37:05;;;;;;;32.65;8.50;;;;;;;;;;4972342;28;20049;-50
2022/09/20 02:39:38;;;;;;;32.80;8.63;;;;;;;;;;4973623;28;20050;-48
2022/09/20 02:42:23;;;;;;;26.85;8.32;;;;;;;;;;4973259;28;20035;-51
2022/09/20 02:44:50;;;;;;;36.80;8.95;;;;;;;;;;4971745;28;20034;-49
2022/09/20 02:47:21;;;;;;;25.40;8.00;;;;;;;;;;4972569;28;20031;-51
2022/09/20 02:50:06;;;;;;;29.33;8.88;;;;;;;;;;4971235;28;20047;-48
2022/09/20 02:52:40;;;;;;;31.65;8.25;;;;;;;;;;4972729;28;20023;-47
2022/09/20 02:55:08;;;;;;;29.90;8.57;;;;;;;;;;4971575;28;20374;-49
2022/09/20 02:57:35;;;;;;;38.35;8.85;;;;;;;;;;4972258;28;20511;-48
2022/09/20 03:00:13;;;;;;;34.15;8.48;;;;;;;;;;4972824;28;20449;-49
2022/09/20 03:02:51;;;;;;;31.02;8.20;;;;;;;;;;4971929;28;20035;-49
2022/09/20 03:05:32;;;;;;;28.88;8.55;;;;;;;;;;4971939;28;20027;-49
2022/09/20 03:07:59;;;;;;;25.10;7.13;;;;;;;;;;4972230;28;20117;-47
2022/09/20 03:10:31;;;;;;;22.25;7.40;;;;;;;;;;4971080;28;20030;-48
2022/09/20 03:12:58;;;;;;;25.48;7.88;;;;;;;;;;4971445;28;20031;-49
2022/09/20 03:15:31;;;;;;;30.20;7.50;;;;;;;;;;4969371;28;20046;-52
2022/09/20 03:17:58;;;;;;;24.13;7.82;;;;;;;;;;4971126;28;20529;-48
2022/09/20 03:20:25;;;;;;;22.95;7.28;;;;;;;;;;4971017;28;20035;-51
2022/09/20 03:23:10;;;;;;;23.88;6.78;;;;;;;;;;4972089;28;20042;-52
2022/09/20 03:25:50;;;;;;;27.77;7.53;;;;;;;;;;4972976;28;20509;-48
2022/09/20 03:28:23;;;;;;;25.35;6.50;;;;;;;;;;4972441;28;20022;-48
2022/09/20 03:31:08;;;;;;;18.02;6.55;;;;;;;;;;4971422;28;20048;-46
2022/09/20 03:33:41;;;;;;;18.85;6.07;;;;;;;;;;4972024;28;20023;-49
2022/09/20 03:36:21;;;;;;;17.60;6.70;;;;;;;;;;4971042;28;20046;-48
2022/09/20 03:39:07;;;;;;;19.05;6.53;;;;;;;;;;4970830;28;20070;-49
2022/09/20 03:41:46;;;;;;;15.02;6.30;;;;;;;;;;4971867;28;20102;-48
2022/09/20 03:44:27;;;;;;;19.83;6.07;;;;;;;;;;4971680;28;20393;-47
2022/09/20 03:47:22;;;;;;;14.18;5.55;;;;;;;;;;4971912;28;20369;-46
2022/09/20 03:50:07;;;;;;;19.85;6.30;;;;;;;;;;4946419;28;20061;-52
2022/09/20 03:52:34;;;;;;;15.25;5.75;;;;;;;;;;4971835;28;20023;-48
2022/09/20 03:55:12;;;;;;;17.15;5.93;;;;;;;;;;4972683;28;20118;-49
2022/09/20 03:57:39;;;;;;;16.65;6.10;;;;;;;;;;4972631;28;20039;-47
2022/09/20 04:00:22;;;;;;;19.02;6.03;;;;;;;;;;4973040;28;20441;-49
2022/09/20 04:02:52;;;;;;;17.58;5.95;;;;;;;;;;4970657;28;20066;-48
2022/09/20 04:05:24;;;;;;;17.23;5.82;;;;;;;;;;4973926;28;20104;-49
2022/09/20 04:07:50;;;;;;;;;;;;;;;;;;4974012;28;20053;-47
2022/09/20 04:10:24;;;;;;;15.07;5.43;;;;;;;;;;4973895;28;19913;-49
2022/09/20 04:13:09;;;;;;;16.70;6.07;;;;;;;;;;4974169;28;20485;-47
2022/09/20 04:15:39;;;;;;;15.80;5.35;;;;;;;;;;4973859;28;20512;-49
2022/09/20 04:18:12;;;;;;;14.30;5.32;;;;;;;;;;4974070;28;20073;-48
2022/09/20 04:21:09;;;;;;;15.20;5.00;;;;;;;;;;4974039;28;20038;-51
2022/09/20 04:23:52;;;;;;;12.50;4.78;;;;;;;;;;4938280;28;20039;-48
2022/09/20 04:26:29;;;;;;;13.23;5.10;;;;;;;;;;4973857;28;20042;-48
2022/09/20 04:29:00;;;;;;;14.50;5.28;;;;;;;;;;4973926;28;20094;-50
2022/09/20 04:31:36;;;;;;;12.73;5.07;;;;;;;;;;4973787;28;20039;-48
2022/09/20 04:34:05;;;;;;;14.00;4.97;;;;;;;;;;4973839;28;20035;-49
2022/09/20 04:36:32;;;;;;;14.48;5.00;;;;;;;;;;4973524;28;20406;-49
2022/09/20 04:39:18;;;;;;;11.70;4.40;;;;;;;;;;4973359;28;20108;-50
2022/09/20 04:42:03;;;;;;;13.05;4.57;;;;;;;;;;4973896;28;20038;-49
2022/09/20 04:44:30;;;;;;;15.25;4.80;;;;;;;;;;4973722;28;20038;-49
2022/09/20 04:47:14;;;;;;;11.80;4.45;;;;;;;;;;4973767;28;20058;-48
2022/09/20 04:49:59;;;;;;;12.82;4.13;;;;;;;;;;4973401;28;20027;-52
2022/09/20 04:52:39;;;;;;;13.15;4.32;;;;;;;;;;4973759;28;20040;-48
2022/09/20 04:55:09;;;;;;;10.73;4.28;;;;;;;;;;4973591;28;20027;-47
2022/09/20 04:57:58;;;;;;;9.95;4.10;;;;;;;;;;4973605;28;20481;-51
2022/09/20 05:00:32;;;;;;;16.20;3.65;;;;;;;;;;4973482;28;20042;-47
2022/09/20 05:03:04;;;;;;;8.20;4.05;;;;;;;;;;4973599;28;20478;-47
2022/09/20 05:05:43;;;;;;;12.07;4.82;;;;;;;;;;4973466;28;20039;-48
2022/09/20 05:08:29;;;;;;;9.85;3.97;;;;;;;;;;4973507;28;20027;-48
2022/09/20 05:11:13;;;;;;;10.63;3.92;;;;;;;;;;4973607;28;20031;-49
2022/09/20 05:13:56;;;;;;;11.65;4.35;;;;;;;;;;4971987;28;20031;-49
2022/09/20 05:16:26;;;;;;;13.50;4.32;;;;;;;;;;4973270;28;20488;-50
2022/09/20 05:18:59;;;;;;;12.63;4.20;;;;;;;;;;4973524;28;20062;-48
2022/09/20 05:21:38;;;;;;;8.85;3.50;;;;;;;;;;4973420;28;20027;-48
2022/09/20 05:24:16;;;;;;;10.18;3.85;;;;;;;;;;4973373;28;20034;-52
2022/09/20 05:27:00;;;;;;;8.75;3.38;;;;;;;;;;4973227;28;20117;-52
2022/09/20 05:29:41;;;;;;;9.38;3.55;;;;;;;;;;4973417;28;20022;-49
2022/09/20 05:32:20;;;;;;;10.13;3.88;;;;;;;;;;4973345;28;20023;-48
2022/09/20 05:35:07;;;;;;;8.85;3.42;;;;;;;;;;4973350;28;20034;-48
2022/09/20 05:37:53;;;;;;;7.82;3.20;;;;;;;;;;4972874;28;20031;-49
2022/09/20 05:40:31;;;;;;;9.23;3.78;;;;;;;;;;4973090;28;20030;-49
2022/09/20 05:43:07;;;;;;;7.32;3.33;;;;;;;;;;4973304;28;20102;-49
2022/09/20 05:45:40;;;;;;;10.18;3.80;;;;;;;;;;4973347;28;20547;-50
2022/09/20 05:48:17;;;;;;;9.65;2.90;;;;;;;;;;4973142;28;20037;-48
2022/09/20 05:50:44;;;;;;;7.55;3.25;;;;;;;;;;4973540;28;20141;-48
2022/09/20 05:53:29;;;;;;;6.43;2.88;;;;;;;;;;4976849;28;20031;-48
2022/09/20 05:55:56;;;;;;;9.73;3.40;;;;;;;;;;4976118;28;20452;-47
2022/09/20 05:58:41;;;;;;;6.82;3.42;;;;;;;;;;4976553;28;20041;-47
2022/09/20 06:01:28;;;;;;;9.45;3.30;;;;;;;;;;4974450;28;20042;-47
2022/09/20 06:04:00;;;;;;;7.72;3.28;;;;;;;;;;4976296;28;20059;-49
2022/09/20 06:06:46;;;;;;;7.15;3.20;;;;;;;;;;4976404;28;20030;-49
2022/09/20 06:09:19;;;;;;;6.45;2.80;;;;;;;;;;4976373;28;20027;-48
2022/09/20 06:11:52;;;;;;;7.13;3.30;;;;;;;;;;4976203;28;20023;-50
2022/09/20 06:14:26;;;;;;;7.25;3.17;;;;;;;;;;4976363;28;20019;-49
2022/09/20 06:17:13;;;;;;;6.72;2.65;;;;;;;;;;4975830;28;20115;-50
2022/09/20 06:19:46;;;;;;;6.10;2.70;;;;;;;;;;4972354;28;20485;-50
2022/09/20 06:22:20;;;;;;;6.20;2.78;;;;;;;;;;4976038;28;20110;-48
2022/09/20 06:24:49;;;;;;;6.45;2.83;;;;;;;;;;4976011;28;20027;-49
2022/09/20 06:27:23;;;;;;;6.05;2.63;;;;;;;;;;4975984;28;20512;-49
2022/09/20 06:29:55;;;;;;;6.95;3.10;;;;;;;;;;4976061;28;20027;-52
2022/09/20 06:32:22;;;;;;;6.47;2.10;;;;;;;;;;4975835;28;20027;-50
2022/09/20 06:34:50;;;;;;;5.07;2.35;;;;;;;;;;4975892;28;20031;-51
2022/09/20 06:43:18;;;;;;;6.68;2.50;;;;;;;;;;4975802;28;20062;-50
2022/09/20 06:45:46;;;;;;;5.18;2.38;;;;;;;;;;4975802;28;20027;-47
2022/09/20 06:48:14;;;;;;;4.68;2.45;;;;;;;;;;4975851;28;20035;-50
2022/09/20 06:50:44;;;;;;;3.95;2.20;;;;;;;;;;4975438;28;20047;-52
2022/09/20 06:53:15;;;;;;;5.25;2.20;;;;;;;;;;4975591;28;20023;-49
2022/09/20 06:55:43;;;;;;;4.60;2.30;;;;;;;;;;4975220;28;20026;-52
2022/09/20 06:58:11;;;;;;;5.45;2.20;;;;;;;;;;4975384;28;20093;-51
2022/09/20 07:00:38;;;;;;;5.82;2.33;;;;;;;;;;4975511;28;20038;-51
2022/09/20 07:03:06;;;;;;;6.68;2.22;;;;;;;;;;4974998;28;20046;-50
2022/09/20 07:05:33;;;;;;;5.30;2.35;;;;;;;;;;4975286;28;20592;-52
2022/09/20 07:08:00;;;;;;;5.57;2.33;;;;;;;;;;4975158;28;20023;-53
2022/09/20 07:10:27;;;;;;;5.43;2.40;;;;;;;;;;4975263;28;20106;-49
2022/09/20 07:12:59;;;;;;;5.30;2.35;;;;;;;;;;4975154;28;20034;-48
2022/09/20 07:15:27;;;;;;;4.72;2.38;;;;;;;;;;4974649;28;20445;-50
2022/09/20 07:17:54;;;;;;;6.32;2.30;;;;;;;;;;4974698;28;20050;-50
2022/09/20 07:20:21;;;;;;;3.42;2.00;;;;;;;;;;4975108;28;20031;-47
2022/09/20 07:22:49;;;;;;;4.25;1.80;;;;;;;;;;4975083;28;20081;-53
2022/09/20 07:25:17;;;;;;;5.80;2.25;;;;;;;;;;4975039;28;20056;-52
2022/09/20 07:27:45;;;;;;;5.45;2.15;;;;;;;;;;4974654;28;20497;-53
2022/09/20 07:30:12;;;;;;;4.43;2.15;;;;;;;;;;4974622;28;20393;-48
2022/09/20 07:32:39;;;;;;;4.10;1.98;;;;;;;;;;4974876;28;20030;-48
2022/09/20 07:35:10;;;;;;;5.40;2.15;;;;;;;;;;4974743;28;20023;-49
2022/09/20 07:37:40;;;;;;;8.05;2.05;;;;;;;;;;4974679;28;20023;-52
2022/09/20 07:40:08;;;;;;;5.53;2.00;;;;;;;;;;4974634;28;20035;-52
2022/09/20 07:42:35;;;;;;;5.53;1.88;;;;;;;;;;4974679;28;20027;-52
2022/09/20 07:45:02;;;;;;;3.75;2.08;;;;;;;;;;4974491;28;20513;-49
2022/09/20 07:47:34;;;;;;;3.20;1.52;;;;;;;;;;4974442;28;20042;-49
2022/09/20 07:50:01;;;;;;;3.53;1.95;;;;;;;;;;4974422;28;20062;-52
2022/09/20 07:52:28;;;;;;;6.00;2.45;;;;;;;;;;4974508;28;20026;-50
2022/09/20 07:54:55;;;;;;;3.47;1.88;;;;;;;;;;4974423;28;20018;-51
2022/09/20 07:57:22;;;;;;;3.45;1.73;;;;;;;;;;4974330;28;20030;-49
2022/09/20 07:59:49;;;;;;;4.00;1.77;;;;;;;;;;4974145;28;20027;-49
2022/09/20 08:02:16;;;;;;;3.08;1.73;;;;;;;;;;4974379;28;20023;-48
2022/09/20 08:04:43;;;;;;;3.40;1.60;;;;;;;;;;4972996;28;20027;-47
2022/09/20 08:07:11;;;;;;;3.70;1.70;;;;;;;;;;4974052;28;20404;-48
2022/09/20 08:09:38;;;;;;;3.97;1.65;;;;;;;;;;4973978;28;20037;-48
2022/09/20 08:12:07;;;;;;;3.67;1.83;;;;;;;;;;4974158;28;20388;-50
2022/09/20 08:14:34;;;;;;;2.35;1.52;;;;;;;;;;4973360;28;20035;-47
2022/09/20 08:17:01;;;;;;;4.65;1.67;;;;;;;;;;4973985;28;20115;-49
2022/09/20 08:19:29;;;;;;;3.05;1.58;;;;;;;;;;4974047;28;20031;-52
2022/09/20 08:21:56;;;;;;;2.10;1.38;;;;;;;;;;4973752;28;20389;-49
2022/09/20 08:24:25;;;;;;;5.25;1.38;;;;;;;;;;4973935;28;20029;-52
2022/09/20 08:26:52;;;;;;;2.70;1.50;;;;;;;;;;4972527;28;20568;-51
2022/09/20 08:29:19;;;;;;;2.40;1.38;;;;;;;;;;4973976;28;20030;-50
2022/09/20 08:31:47;;;;;;;5.07;1.63;;;;;;;;;;4973580;28;20474;-50
2022/09/20 08:34:14;;;;;;;3.85;1.40;;;;;;;;;;4973835;28;20019;-52
2022/09/20 08:36:45;;;;;;;3.88;1.48;;;;;;;;;;4973755;28;20030;-49
2022/09/20 08:39:13;;;;;;;3.38;1.67;;;;;;;;;;4973765;28;20039;-51
2022/09/20 08:41:43;;;;;;;4.25;1.70;;;;;;;;;;4973690;28;20022;-51
2022/09/20 08:44:25;;;;;;;3.63;1.52;;;;;;;;;;4973617;28;20029;-50
2022/09/20 08:46:51;;;;;;;;;;;;;;;;;;4974069;28;20101;-49
2022/09/20 08:49:28;;;;;;;3.40;1.33;;;;;;;;;;4973715;28;19949;-49
2022/09/20 08:51:57;;;;;;;4.68;1.52;;;;;;;;;;4973612;28;20031;-52
2022/09/20 08:54:24;;;;;;;4.03;1.63;;;;;;;;;;4973716;28;20094;-50
2022/09/20 08:56:51;;;;;;;3.22;1.40;;;;;;;;;;4973369;28;20030;-51
2022/09/20 08:59:19;;;;;;;4.07;1.50;;;;;;;;;;4973714;28;20033;-48
2022/09/20 09:01:47;;;;;;;6.82;1.60;;;;;;;;;;4973645;28;20034;-50
2022/09/20 09:04:15;;;;;;;2.83;1.20;;;;;;;;;;4973623;28;20034;-51
2022/09/20 09:06:43;;;;;;;3.15;1.40;;;;;;;;;;4973587;28;20544;-49
2022/09/20 09:09:18;;;;;;;2.75;1.23;;;;;;;;;;4973442;28;20046;-50
2022/09/20 09:11:47;;;;;;;2.35;1.27;;;;;;;;;;4973640;28;20031;-49
2022/09/20 09:14:47;;;;;;;3.55;1.58;;;;;;;;;;4973432;28;20031;-49
2022/09/20 09:17:16;;;;;;;4.05;1.17;;;;;;;;;;4969120;28;20444;-52
2022/09/20 09:19:44;;;;;;;2.67;1.20;;;;;;;;;;4973406;28;20126;-52
2022/09/20 09:22:12;;;;;;;2.63;1.30;;;;;;;;;;4973521;28;20038;-51
2022/09/20 09:24:38;;;;;;;3.58;1.48;;;;;;;;;;4973616;28;20389;-47
2022/09/20 09:27:16;;;;;;;2.15;1.05;;;;;;;;;;4977368;28;20035;-49
2022/09/20 09:29:50;;;;;;;2.30;1.10;;;;;;;;;;4977083;28;20118;-48
2022/09/20 09:32:28;;;;;;;2.72;1.30;;;;;;;;;;4976861;28;20023;-52
2022/09/20 09:34:56;;;;;;;3.40;1.45;;;;;;;;;;4977028;28;20097;-47
2022/09/20 09:37:27;;;;;;;2.30;1.30;;;;;;;;;;4976705;28;20035;-48
2022/09/20 09:40:10;;;;;;;2.40;1.20;;;;;;;;;;4976783;28;20034;-52
2022/09/20 09:42:37;;;;;;;1.88;0.98;;;;;;;;;;4976883;28;20106;-50
2022/09/20 09:45:14;;;;;;;2.28;1.10;;;;;;;;;;4976753;28;20082;-50
2022/09/20 09:47:40;;;;;;;2.08;1.00;;;;;;;;;;4976608;28;20031;-50
2022/09/20 09:50:21;;;;;;;3.67;1.20;;;;;;;;;;4976646;28;20051;-50
2022/09/20 09:53:09;;;;;;;2.28;1.13;;;;;;;;;;4976650;28;20434;-49
2022/09/20 09:55:43;;;;;;;3.88;1.15;;;;;;;;;;4976589;28;20058;-51
2022/09/20 09:58:38;;;;;;;2.65;1.15;;;;;;;;;;4976631;28;20151;-49
2022/09/20 10:01:06;;;;;;;2.15;1.05;;;;;;;;;;4968471;28;20397;-50
2022/09/20 10:03:53;;;;;;;1.98;1.15;;;;;;;;;;4976256;28;20093;-51
2022/09/20 10:06:20;;;;;;;1.73;0.90;;;;;;;;;;4976352;28;20038;-51
2022/09/20 10:09:05;;;;;;;2.35;1.17;;;;;;;;;;4976527;28;20430;-50
2022/09/20 10:11:39;;;;;;;2.50;0.88;;;;;;;;;;4976388;28;20027;-51
2022/09/20 10:14:13;;;;;;;3.47;1.13;;;;;;;;;;4976224;28;20097;-49
2022/09/20 10:17:06;;;;;;;4.43;1.08;;;;;;;;;;4976012;28;20481;-50
2022/09/20 10:19:33;;;;;;;1.27;0.80;;;;;;;;;;4976265;28;20038;-50
2022/09/20 10:22:09;;;;;;;1.90;0.95;;;;;;;;;;4976271;28;20031;-49
2022/09/20 10:24:39;;;;;;;2.78;1.10;;;;;;;;;;4976138;28;20090;-50
2022/09/20 10:27:18;;;;;;;2.85;0.90;;;;;;;;;;4975706;28;20109;-48
2022/09/20 10:29:56;;;;;;;2.28;1.00;;;;;;;;;;4983549;28;20045;-50
2022/09/20 10:32:26;;;;;;;2.75;1.10;;;;;;;;;;4975105;28;20555;-50
2022/09/20 10:34:59;;;;;;;2.97;0.90;;;;;;;;;;4986009;28;20121;-52
2022/09/20 10:37:38;;;;;;;2.90;0.90;;;;;;;;;;4979502;28;20125;-49
2022/09/20 10:40:13;;;;;;;2.58;0.95;;;;;;;;;;4984428;28;20038;-50
2022/09/20 10:45:41;;;;;;;3.65;0.90;;;;;;;;;;4985502;28;20072;-47
2022/09/20 10:48:24;;;;;;;7.90;1.10;;;;;;;;;;4975169;28;20041;-47
2022/09/20 10:51:00;;;;;;;4.35;1.00;;;;;;;;;;4985434;28;20038;-47
2022/09/20 10:53:45;;;;;;;2.80;0.75;;;;;;;;;;4975177;28;20058;-48
2022/09/20 10:56:31;;;;;;;3.22;0.80;;;;;;;;;;4981533;28;20063;-47
2022/09/20 10:59:16;;;;;;;3.15;0.80;;;;;;;;;;4983118;28;20038;-46
2022/09/20 11:01:46;;;;;;;1.58;0.70;;;;;;;;;;4984594;28;20030;-46
2022/09/20 11:04:13;;;;;;;2.25;0.70;;;;;;;;;;4981754;28;20034;-47
2022/09/20 11:06:47;;;;;;;3.53;0.90;;;;;;;;;;4984097;28;20029;-48
2022/09/20 11:09:17;;;;;;;2.50;0.95;;;;;;;;;;4974736;28;20026;-48
2022/09/20 11:11:47;;;;;;;15.43;1.50;;;;;;;;;;4984664;28;20035;-46
2022/09/20 11:14:31;;;;;;;10.18;1.90;;;;;;;;;;4985237;28;20030;-47
2022/09/20 11:17:01;;;;;;;10.65;1.83;;;;;;;;;;4984772;28;20046;-45
2022/09/20 11:19:33;;;;;;;4.40;1.45;;;;;;;;;;4974787;28;20392;-46
2022/09/20 11:22:09;;;;;;;7.03;1.50;;;;;;;;;;4985023;28;20474;-46
2022/09/20 11:24:56;;;;;;;20.60;1.38;;;;;;;;;;4980677;28;20023;-51
2022/09/20 11:27:24;;;;;;;200.57;6.05;;;;;;;;;;4982479;28;20045;-53
2022/09/20 11:30:03;;;;;;;28.10;2.00;;;;;;;;;;4983040;28;20042;-51
2022/09/20 11:32:35;;;;;;;87.80;7.45;;;;;;;;;;4983001;28;20062;-54
2022/09/20 11:35:13;;;;;;;179.00;20.77;;;;;;;;;;4982143;28;20039;-53
2022/09/20 11:37:50;;;;;;;71.65;9.10;;;;;;;;;;4981335;28;20053;-53
2022/09/20 11:40:35;;;;;;;67.20;10.85;;;;;;;;;;4980715;28;20045;-52
2022/09/20 11:43:05;;;;;;;58.40;9.27;;;;;;;;;;4982003;28;20034;-53
2022/09/20 11:45:32;;;;;;;56.08;10.10;;;;;;;;;;4982636;28;20027;-53
2022/09/20 11:48:08;;;;;;;43.20;6.80;;;;;;;;;;4984233;28;20100;-54
2022/09/20 11:50:38;;;;;;;38.90;6.10;;;;;;;;;;4984236;28;20125;-49
2022/09/20 11:53:08;;;;;;;27.48;5.15;;;;;;;;;;4974116;28;20027;-49
2022/09/20 11:55:44;;;;;;;20.05;3.60;;;;;;;;;;4984737;28;20074;-54
2022/09/20 11:58:16;;;;;;;16.77;3.20;;;;;;;;;;4973905;28;20042;-49
2022/09/20 12:00:46;;;;;;;159.17;11.47;;;;;;;;;;4983629;28;20026;-53
2022/09/20 12:03:31;;;;;;;42.20;5.68;;;;;;;;;;4982509;28;20389;-49
2022/09/20 12:06:00;;;;;;;46.67;5.55;;;;;;;;;;4980173;28;20085;-47
2022/09/20 12:08:30;;;;;;;33.40;5.60;;;;;;;;;;4982915;28;20026;-54
2022/09/20 12:11:03;;;;;;;39.85;5.93;;;;;;;;;;4982565;28;20481;-52
2022/09/20 12:13:31;;;;;;;47.67;5.85;;;;;;;;;;4982581;28;20595;-53
2022/09/20 12:16:06;;;;;;;39.75;6.20;;;;;;;;;;4982436;28;20067;-53
2022/09/20 12:18:38;;;;;;;36.13;6.55;;;;;;;;;;4982223;28;20026;-53
2022/09/20 12:21:10;;;;;;;53.85;6.85;;;;;;;;;;4982450;28;20046;-51
2022/09/20 12:23:41;;;;;;;49.53;7.07;;;;;;;;;;4973686;28;20085;-53
2022/09/20 12:26:12;;;;;;;46.55;6.85;;;;;;;;;;4983699;28;20489;-50
2022/09/20 12:28:43;;;;;;;33.40;5.63;;;;;;;;;;4980345;28;20114;-51
2022/09/20 12:31:25;;;;;;;33.70;5.05;;;;;;;;;;4982184;28;20097;-52
2022/09/20 12:33:55;;;;;;;34.05;5.70;;;;;;;;;;4983637;28;20125;-51
2022/09/20 12:36:22;;;;;;;27.48;5.60;;;;;;;;;;4973216;28;20034;-51
2022/09/20 12:38:51;;;;;;;29.67;5.13;;;;;;;;;;4973342;28;20092;-48
2022/09/20 12:41:19;;;;;;;24.80;5.10;;;;;;;;;;4983605;28;20022;-53
2022/09/20 12:43:55;;;;;;;27.15;4.80;;;;;;;;;;4983403;28;20030;-53
2022/09/20 12:46:24;;;;;;;22.73;4.18;;;;;;;;;;4980756;28;20806;-54
2022/09/20 12:48:51;;;;;;;18.50;3.67;;;;;;;;;;4981770;28;20122;-55
2022/09/20 12:54:08;;;;;;;18.50;2.80;;;;;;;;;;4982610;28;20090;-55
2022/09/20 12:56:37;;;;;;;13.05;2.15;;;;;;;;;;4981679;28;20031;-53
2022/09/20 12:59:06;;;;;;;4.78;1.60;;;;;;;;;;4982711;28;20113;-53
2022/09/20 13:01:36;;;;;;;6.43;1.33;;;;;;;;;;4976606;28;20039;-53
2022/09/20 13:04:22;;;;;;;9.15;1.65;;;;;;;;;;4977075;28;20037;-52
2022/09/20 13:06:49;;;;;;;4.22;1.15;;;;;;;;;;4986547;28;20062;-54
2022/09/20 13:09:16;;;;;;;9.77;2.10;;;;;;;;;;4983073;28;20043;-50
2022/09/20 13:11:45;;;;;;;22.25;2.00;;;;;;;;;;4986758;28;20085;-48
2022/09/20 13:14:18;;;;;;;10.52;1.60;;;;;;;;;;4987496;28;20042;-51
2022/09/20 13:16:57;;;;;;;8.65;1.48;;;;;;;;;;4977087;28;20109;-52
2022/09/20 13:19:33;;;;;;;10.95;1.67;;;;;;;;;;4985096;28;20062;-50
2022/09/20 13:22:00;;;;;;;6.07;1.60;;;;;;;;;;4983904;28;20034;-49
2022/09/20 13:24:34;;;;;;;7.82;1.52;;;;;;;;;;4986061;28;20085;-49
2022/09/20 13:27:18;;;;;;;10.05;1.58;;;;;;;;;;4986010;28;20035;-53
2022/09/20 13:29:45;;;;;;;8.85;1.75;;;;;;;;;;4985091;28;20065;-53
2022/09/20 13:32:22;;;;;;;6.25;1.30;;;;;;;;;;4985200;28;20493;-53
2022/09/20 13:35:08;;;;;;;10.77;1.58;;;;;;;;;;4985520;28;20029;-52
2022/09/20 13:37:37;;;;;;;8.30;1.23;;;;;;;;;;4986942;28;20031;-52
2022/09/20 13:40:05;;;;;;;9.45;1.55;;;;;;;;;;4976660;28;20101;-49
2022/09/20 13:42:35;;;;;;;9.05;1.27;;;;;;;;;;4976322;28;20026;-52
2022/09/20 13:45:03;;;;;;;16.30;1.73;;;;;;;;;;4976446;28;20081;-52
2022/09/20 13:47:32;;;;;;;14.55;1.90;;;;;;;;;;4976228;28;20089;-50
2022/09/20 13:50:01;;;;;;;6.07;1.00;;;;;;;;;;4986320;28;20052;-54
2022/09/20 13:52:29;;;;;;;10.20;1.17;;;;;;;;;;4976298;28;20470;-49
2022/09/20 13:54:57;;;;;;;4.32;1.40;;;;;;;;;;4976151;28;20109;-52
2022/09/20 13:57:27;;;;;;;13.32;1.27;;;;;;;;;;4976841;28;20507;-53
2022/09/20 13:59:56;;;;;;;9.75;1.65;;;;;;;;;;4985630;28;20039;-50
2022/09/20 14:02:26;;;;;;;10.88;1.50;;;;;;;;;;4982005;28;20042;-51
2022/09/20 14:04:54;;;;;;;7.55;1.17;;;;;;;;;;4979271;28;20056;-49
2022/09/20 14:07:24;;;;;;;10.10;1.30;;;;;;;;;;4976592;28;20043;-51
2022/09/20 14:09:53;;;;;;;6.13;1.20;;;;;;;;;;4978857;28;20046;-51
2022/09/20 14:12:20;;;;;;;5.10;1.08;;;;;;;;;;4978013;28;20404;-52
2022/09/20 14:14:47;;;;;;;6.22;1.13;;;;;;;;;;4979183;28;20058;-50
2022/09/20 14:17:17;;;;;;;10.80;1.30;;;;;;;;;;4978633;28;20370;-51
2022/09/20 14:19:47;;;;;;;8.95;1.35;;;;;;;;;;4981041;28;20035;-51
2022/09/20 14:22:18;;;;;;;9.57;1.88;;;;;;;;;;4982856;28;20030;-54
2022/09/20 14:24:57;;;;;;;7.63;1.02;;;;;;;;;;4980956;28;20039;-52
2022/09/20 14:27:24;;;;;;;7.60;1.15;;;;;;;;;;4982402;28;20034;-50
2022/09/20 14:29:52;;;;;;;7.65;1.33;;;;;;;;;;4982577;28;20034;-52
2022/09/20 14:32:19;;;;;;;11.90;1.40;;;;;;;;;;4982747;28;20069;-51
2022/09/20 14:34:48;;;;;;;10.93;1.33;;;;;;;;;;4979946;28;20031;-52
2022/09/20 14:37:20;;;;;;;7.72;1.35;;;;;;;;;;4982630;28;20120;-49
2022/09/20 14:39:47;;;;;;;;;;;;;;;;;;4981349;28;20033;-51
2022/09/20 14:42:43;;;;;;;8.95;1.30;;;;;;;;;;4982420;28;19909;-53
2022/09/20 14:45:25;;;;;;;16.15;2.10;;;;;;;;;;4969545;28;20085;-53
2022/09/20 14:47:54;;;;;;;19.00;2.30;;;;;;;;;;4977699;28;20026;-49
2022/09/20 14:50:29;;;;;;;22.60;2.08;;;;;;;;;;4965847;28;20346;-52
2022/09/20 14:53:25;;;;;;;19.45;1.85;;;;;;;;;;4966672;28;20873;-50
2022/09/20 14:56:04;;;;;;;12.02;2.00;;;;;;;;;;4962002;28;20054;-52
2022/09/20 14:58:32;;;;;;;26.02;2.38;;;;;;;;;;4966860;28;20034;-50
2022/09/20 15:01:04;;;;;;;15.95;2.25;;;;;;;;;;4964473;28;20497;-54
2022/09/20 15:03:31;;;;;;;;;;;;;;;;;;4968235;28;20035;-50
2022/09/20 15:05:58;;;;;;;16.40;2.45;;;;;;;;;;4966427;28;19909;-53
2022/09/20 15:08:25;;;;;;;14.40;1.55;;;;;;;;;;4966301;28;20154;-53
2022/09/20 15:10:52;;;;;;;16.90;1.90;;;;;;;;;;4968688;28;20564;-54
2022/09/20 15:13:19;;;;;;;11.27;1.30;;;;;;;;;;4973991;28;20397;-51
2022/09/20 15:15:49;;;;;;;10.93;1.20;;;;;;;;;;4973661;28;20042;-53
2022/09/20 15:18:23;;;;;;;5.85;1.27;;;;;;;;;;4973741;28;20022;-54
2022/09/20 15:20:54;;;;;;;9.93;1.13;;;;;;;;;;5433169;23;20021;31
2022/09/20 15:23:22;;;;;;;15.18;1.77;;;;;;;;;;4949711;28;20460;-52
2022/09/20 15:25:53;;;;;;;11.82;1.42;;;;;;;;;;4955701;29;20527;-54